createdAt,value
2019-03-18T00:01:41.158Z,97788.59
2019-03-18T00:04:12.105Z,97771.91
2019-03-18T00:06:43.184Z,97770.62
2019-03-18T00:09:14.039Z,97774.42
2019-03-18T00:11:44.964Z,97775.72
2019-03-18T00:14:15.917Z,97764.13
2019-03-18T00:16:46.803Z,97769.02
2019-03-18T00:19:17.758Z,97749.28
2019-03-18T00:21:48.818Z,97741.51
2019-03-18T00:24:19.686Z,97755.73
2019-03-18T00:26:50.626Z,97755.86
2019-03-18T00:29:21.586Z,97761.95
2019-03-18T00:31:52.436Z,97768.44
2019-03-18T00:34:23.491Z,97766.30
2019-03-18T00:36:54.463Z,97768.17
2019-03-18T00:39:25.344Z,97759.65
2019-03-18T00:41:56.330Z,97774.36
2019-03-18T00:44:27.275Z,97784.69
2019-03-18T00:46:58.269Z,97773.64
2019-03-18T00:49:29.143Z,97762.50
2019-03-18T00:52:00.209Z,97759.19
2019-03-18T00:54:31.096Z,97763.93
2019-03-18T00:57:01.968Z,97778.17
2019-03-18T00:59:32.967Z,97778.70
2019-03-18T01:02:04.339Z,97789.06
2019-03-18T01:04:35.279Z,97768.91
2019-03-18T01:07:06.283Z,97768.05
2019-03-18T01:09:37.172Z,97768.94
2019-03-18T01:12:08.051Z,97765.16
2019-03-18T01:14:38.995Z,97775.61
2019-03-18T01:17:09.935Z,97768.01
2019-03-18T01:19:40.897Z,97766.00
2019-03-18T01:22:11.835Z,97774.09
2019-03-18T01:24:42.797Z,97758.52
2019-03-18T01:27:13.683Z,97765.35
2019-03-18T01:29:44.561Z,97782.98
2019-03-18T01:32:15.631Z,97774.40
2019-03-18T01:34:46.558Z,97775.36
2019-03-18T01:37:17.430Z,97811.91
2019-03-18T01:39:48.378Z,97794.25
2019-03-18T01:42:19.276Z,97801.58
2019-03-18T01:44:50.173Z,97800.23
2019-03-18T01:47:21.071Z,97804.59
2019-03-18T01:49:52.014Z,97799.92
2019-03-18T01:52:22.956Z,97805.19
2019-03-18T01:54:53.822Z,97801.04
2019-03-18T01:57:24.716Z,97811.73
2019-03-18T01:59:55.735Z,97798.08
2019-03-18T02:02:26.764Z,97786.48
2019-03-18T02:04:57.828Z,97800.27
2019-03-18T02:07:28.761Z,97816.28
2019-03-18T02:09:59.701Z,97814.30
2019-03-18T02:12:30.565Z,97826.02
2019-03-18T02:15:01.461Z,97832.91
2019-03-18T02:17:32.329Z,97836.87
2019-03-18T02:20:03.793Z,97832.94
2019-03-18T02:22:34.691Z,97831.92
2019-03-18T02:25:07.990Z,97830.23
2019-03-18T02:27:39.238Z,97842.16
2019-03-18T02:30:12.642Z,97848.61
2019-03-18T02:32:43.635Z,97843.44
2019-03-18T02:35:14.632Z,97848.17
2019-03-18T02:37:45.572Z,97848.97
2019-03-18T02:40:16.524Z,97859.42
2019-03-18T02:42:47.539Z,97842.67
2019-03-18T02:45:18.501Z,97854.37
2019-03-18T02:47:49.502Z,97856.25
2019-03-18T02:50:20.457Z,97857.55
2019-03-18T02:52:51.507Z,97851.95
2019-03-18T02:55:22.417Z,97848.60
2019-03-18T02:57:53.305Z,97845.17
2019-03-18T03:00:24.231Z,97846.09
2019-03-18T03:02:55.349Z,97850.06
2019-03-18T03:05:26.235Z,97843.55
2019-03-18T03:07:57.210Z,97859.49
2019-03-18T03:10:28.166Z,97860.84
2019-03-18T03:12:59.213Z,97866.50
2019-03-18T03:15:30.113Z,97864.09
2019-03-18T03:18:01.021Z,97862.48
2019-03-18T03:20:32.237Z,97864.76
2019-03-18T03:23:03.275Z,97863.62
2019-03-18T03:25:34.497Z,97868.42
2019-03-18T03:28:05.459Z,97874.48
2019-03-18T03:30:36.349Z,97874.04
2019-03-18T03:33:07.248Z,97872.89
2019-03-18T03:35:38.220Z,97869.56
2019-03-18T03:38:09.239Z,97870.38
2019-03-18T03:40:40.261Z,97873.00
2019-03-18T03:43:11.156Z,97883.84
2019-03-18T03:45:42.169Z,97883.05
2019-03-18T03:48:13.156Z,97887.89
2019-03-18T03:50:44.192Z,97900.88
2019-03-18T03:53:15.138Z,97900.03
2019-03-18T03:55:46.199Z,97914.11
2019-03-18T03:58:17.387Z,97911.22
2019-03-18T04:00:48.455Z,97912.46
2019-03-18T04:03:19.502Z,97910.28
2019-03-18T04:05:50.501Z,97907.63
2019-03-18T04:08:21.519Z,97907.59
2019-03-18T04:10:52.469Z,97910.83
2019-03-18T04:13:24.497Z,97911.89
2019-03-18T04:15:55.592Z,97918.17
2019-03-18T04:18:26.579Z,97923.21
2019-03-18T04:20:57.544Z,97917.55
2019-03-18T04:23:28.573Z,97922.77
2019-03-18T04:25:59.529Z,97919.81
2019-03-18T04:28:30.406Z,97916.89
2019-03-18T04:31:01.311Z,97914.25
2019-03-18T04:33:32.225Z,97909.95
2019-03-18T04:36:03.238Z,97902.33
2019-03-18T04:38:34.228Z,97902.85
2019-03-18T04:41:05.248Z,97905.01
2019-03-18T04:43:36.293Z,97905.44
2019-03-18T04:46:07.183Z,97911.48
2019-03-18T04:48:38.268Z,97916.70
2019-03-18T04:51:09.206Z,97920.16
2019-03-18T04:53:40.225Z,97911.16
2019-03-18T04:56:11.425Z,97903.86
2019-03-18T04:58:42.353Z,97909.89
2019-03-18T05:01:13.617Z,97910.80
2019-03-18T05:03:47.646Z,97911.77
2019-03-18T05:06:18.547Z,97911.36
2019-03-18T05:08:49.475Z,97914.33
2019-03-18T05:11:20.383Z,97913.00
2019-03-18T05:13:51.440Z,97910.47
2019-03-18T05:16:22.595Z,97920.37
2019-03-18T05:18:53.613Z,97917.81
2019-03-18T05:21:24.578Z,97918.73
2019-03-18T05:23:55.430Z,97928.60
2019-03-18T05:26:26.418Z,97935.05
2019-03-18T05:28:57.403Z,97934.68
2019-03-18T05:31:28.452Z,97941.54
2019-03-18T05:33:59.577Z,97948.49
2019-03-18T05:36:31.143Z,97943.81
2019-03-18T05:39:02.101Z,97943.91
2019-03-18T05:41:33.228Z,97937.12
2019-03-18T05:44:04.239Z,97933.70
2019-03-18T05:46:35.092Z,97946.96
2019-03-18T05:49:06.227Z,97954.16
2019-03-18T05:51:37.179Z,97955.39
2019-03-18T05:54:10.499Z,97962.98
2019-03-18T05:56:41.586Z,97968.10
2019-03-18T05:59:12.491Z,97959.45
2019-03-18T06:01:43.604Z,97963.90
2019-03-18T06:04:18.734Z,97969.94
2019-03-18T06:06:49.844Z,97965.69
2019-03-18T06:09:20.811Z,97969.89
2019-03-18T06:11:54.884Z,97972.89
2019-03-18T06:14:28.424Z,97974.94
2019-03-18T06:16:59.828Z,97974.51
2019-03-18T06:19:30.874Z,97975.80
2019-03-18T06:22:01.867Z,97977.45
2019-03-18T06:24:32.857Z,97973.61
2019-03-18T06:27:04.257Z,97976.72
2019-03-18T06:29:35.135Z,97981.33
2019-03-18T06:32:06.098Z,97978.15
2019-03-18T06:34:37.138Z,97982.80
2019-03-18T06:37:08.134Z,97975.02
2019-03-18T06:39:39.058Z,97980.06
2019-03-18T06:42:10.086Z,97981.20
2019-03-18T06:44:41.016Z,97983.52
2019-03-18T06:47:12.057Z,97990.65
2019-03-18T06:49:43.052Z,97991.77
2019-03-18T06:52:13.956Z,97991.04
2019-03-18T06:54:45.214Z,97992.98
2019-03-18T06:57:16.172Z,97991.95
2019-03-18T06:59:47.129Z,97994.24
2019-03-18T07:02:18.074Z,97994.55
2019-03-18T07:04:49.006Z,97999.44
2019-03-18T07:07:19.958Z,98002.39
2019-03-18T07:09:50.931Z,98012.52
2019-03-18T07:12:21.842Z,97999.05
2019-03-18T07:14:52.816Z,98008.59
2019-03-18T07:17:23.789Z,98008.61
2019-03-18T07:19:54.750Z,98013.78
2019-03-18T07:22:25.704Z,98019.95
2019-03-18T07:24:56.667Z,98029.67
2019-03-18T07:27:27.629Z,98043.14
2019-03-18T07:29:58.746Z,97996.91
2019-03-18T07:32:29.607Z,98033.25
2019-03-18T07:35:00.739Z,98025.91
2019-03-18T07:37:31.632Z,98038.53
2019-03-18T07:40:02.818Z,98031.88
2019-03-18T07:42:33.961Z,98041.64
2019-03-18T07:45:07.628Z,98053.95
2019-03-18T07:47:38.654Z,98035.37
2019-03-18T07:50:12.192Z,98014.35
2019-03-18T07:52:43.241Z,98040.97
2019-03-18T07:55:14.312Z,98025.76
2019-03-18T07:57:45.310Z,98052.50
2019-03-18T08:00:16.872Z,98049.98
2019-03-18T08:02:47.712Z,98043.95
2019-03-18T08:05:18.658Z,98059.97
2019-03-18T08:07:49.702Z,98062.33
2019-03-18T08:10:20.732Z,98058.30
2019-03-18T08:12:51.777Z,98070.81
2019-03-18T08:15:22.813Z,98069.52
2019-03-18T08:17:53.834Z,98072.09
2019-03-18T08:20:24.761Z,98066.72
2019-03-18T08:22:55.791Z,98078.92
2019-03-18T08:25:26.779Z,98086.30
2019-03-18T08:27:57.639Z,98088.23
2019-03-18T08:30:28.752Z,98084.16
2019-03-18T08:32:59.690Z,98083.45
2019-03-18T08:35:30.605Z,98086.31
2019-03-18T08:38:01.529Z,98083.80
2019-03-18T08:40:32.447Z,98092.48
2019-03-18T08:43:03.491Z,98092.75
2019-03-18T08:45:34.529Z,98100.09
2019-03-18T08:48:05.541Z,98110.00
2019-03-18T08:50:36.590Z,98107.77
2019-03-18T08:53:07.495Z,98113.95
2019-03-18T08:55:38.558Z,98110.02
2019-03-18T08:58:09.527Z,98107.02
2019-03-18T09:00:40.641Z,98106.50
2019-03-18T09:03:11.628Z,98107.19
2019-03-18T09:05:42.624Z,98111.66
2019-03-18T09:08:13.642Z,98110.97
2019-03-18T09:10:44.586Z,98124.27
2019-03-18T09:13:15.637Z,98123.41
2019-03-18T09:15:46.591Z,98129.47
2019-03-18T09:18:17.551Z,98129.69
2019-03-18T09:20:48.417Z,98141.40
2019-03-18T09:23:19.375Z,98136.41
2019-03-18T09:25:50.329Z,98124.89
2019-03-18T09:28:22.326Z,98144.98
2019-03-18T09:30:53.408Z,98134.35
2019-03-18T09:33:24.339Z,98116.02
2019-03-18T09:35:55.403Z,98134.71
2019-03-18T09:38:26.519Z,98126.82
2019-03-18T09:40:57.582Z,98150.43
2019-03-18T09:43:28.607Z,98133.33
2019-03-18T09:45:59.599Z,98140.28
2019-03-18T09:48:30.698Z,98160.69
2019-03-18T09:51:01.679Z,98156.59
2019-03-18T09:53:32.719Z,98154.06
2019-03-18T09:56:03.739Z,98156.10
2019-03-18T09:58:34.744Z,98152.74
2019-03-18T10:01:05.727Z,98140.67
2019-03-18T10:03:36.689Z,98151.22
2019-03-18T10:06:07.694Z,98146.66
2019-03-18T10:08:38.559Z,98134.23
2019-03-18T10:11:09.706Z,98141.31
2019-03-18T10:13:40.629Z,98146.86
2019-03-18T10:16:11.583Z,98152.33
2019-03-18T10:18:42.472Z,98152.71
2019-03-18T10:21:13.490Z,98142.03
2019-03-18T10:23:44.468Z,98153.20
2019-03-18T10:26:15.399Z,98148.58
2019-03-18T10:28:46.367Z,98138.14
2019-03-18T10:31:17.389Z,98142.73
2019-03-18T10:33:48.344Z,98152.89
2019-03-18T10:36:19.329Z,98144.17
2019-03-18T10:38:52.610Z,98144.25
2019-03-18T10:41:23.043Z,98145.95
2019-03-18T10:43:53.924Z,98159.08
2019-03-18T10:46:26.246Z,98156.23
2019-03-18T10:48:57.464Z,98159.91
2019-03-18T10:51:28.500Z,98163.85
2019-03-18T10:53:59.558Z,98159.88
2019-03-18T10:56:30.440Z,98161.62
2019-03-18T10:59:01.644Z,98181.58
2019-03-18T11:01:32.637Z,98172.75
2019-03-18T11:04:03.558Z,98170.89
2019-03-18T11:06:34.459Z,98160.33
2019-03-18T11:09:06.969Z,98179.31
2019-03-18T11:11:37.837Z,98164.42
2019-03-18T11:14:08.797Z,98173.44
2019-03-18T11:16:39.842Z,98161.69
2019-03-18T11:19:10.887Z,98171.24
2019-03-18T11:21:41.774Z,98185.55
2019-03-18T11:24:12.760Z,98175.08
2019-03-18T11:26:43.802Z,98175.22
2019-03-18T11:29:14.988Z,98186.77
2019-03-18T11:31:45.891Z,98176.55
2019-03-18T11:34:16.853Z,98179.48
2019-03-18T11:36:47.984Z,98189.77
2019-03-18T11:39:19.109Z,98180.95
2019-03-18T11:41:50.166Z,98183.37
2019-03-18T11:44:21.123Z,98189.53
2019-03-18T11:46:52.150Z,98186.84
2019-03-18T11:49:23.160Z,98174.78
2019-03-18T11:51:54.083Z,98190.41
2019-03-18T11:54:25.169Z,98188.80
2019-03-18T11:56:56.374Z,98194.41
2019-03-18T11:59:27.656Z,98190.59
2019-03-18T12:01:58.508Z,98193.42
2019-03-18T12:04:29.426Z,98187.63
2019-03-18T12:07:00.468Z,98185.75
2019-03-18T12:09:31.555Z,98188.27
2019-03-18T12:12:02.692Z,98187.77
2019-03-18T12:14:33.557Z,98181.73
2019-03-18T12:17:04.521Z,98188.85
2019-03-18T12:19:35.413Z,98176.34
2019-03-18T12:22:06.289Z,98190.41
2019-03-18T12:24:37.508Z,98196.00
2019-03-18T12:27:08.537Z,98199.37
2019-03-18T12:29:39.536Z,98211.84
2019-03-18T12:32:10.480Z,98201.33
2019-03-18T12:34:41.421Z,98211.32
2019-03-18T12:37:12.461Z,98204.55
2019-03-18T12:39:43.426Z,98204.66
2019-03-18T12:42:14.537Z,98209.73
2019-03-18T12:44:45.455Z,98204.88
2019-03-18T12:47:16.398Z,98203.99
2019-03-18T12:49:47.351Z,98193.84
2019-03-18T12:52:18.195Z,98191.01
2019-03-18T12:54:49.437Z,98181.31
2019-03-18T12:57:20.385Z,98180.08
2019-03-18T12:59:51.313Z,98186.53
2019-03-18T13:02:22.297Z,98183.84
2019-03-18T13:04:53.331Z,98177.23
2019-03-18T13:07:24.241Z,98165.59
2019-03-18T13:09:55.280Z,98175.59
2019-03-18T13:12:26.125Z,98179.22
2019-03-18T13:14:57.011Z,98177.30
2019-03-18T13:17:27.926Z,98174.97
2019-03-18T13:19:58.951Z,98167.64
2019-03-18T13:22:30.069Z,98175.67
2019-03-18T13:25:05.751Z,98157.40
2019-03-18T13:27:36.755Z,98157.42
2019-03-18T13:30:10.729Z,98150.39
2019-03-18T13:32:44.002Z,98154.91
2019-03-18T13:35:21.300Z,98153.00
2019-03-18T13:37:52.177Z,98151.22
2019-03-18T13:40:23.263Z,98158.24
2019-03-18T13:42:54.296Z,98149.30
2019-03-18T13:45:25.302Z,98153.84
2019-03-18T13:47:56.535Z,98159.70
2019-03-18T13:50:27.701Z,98160.75
2019-03-18T13:52:58.663Z,98173.19
2019-03-18T13:55:31.865Z,98146.77
2019-03-18T13:58:02.531Z,98160.39
2019-03-18T14:00:33.528Z,98140.70
2019-03-18T14:03:04.583Z,98147.59
2019-03-18T14:05:35.591Z,98164.00
2019-03-18T14:08:06.602Z,98166.00
2019-03-18T14:10:37.658Z,98165.38
2019-03-18T14:13:08.739Z,98172.63
2019-03-18T14:15:39.707Z,98178.28
2019-03-18T14:18:10.637Z,98175.05
2019-03-18T14:20:41.517Z,98176.03
2019-03-18T14:23:12.485Z,98173.38
2019-03-18T14:25:45.527Z,98170.47
2019-03-18T14:28:16.317Z,98159.36
2019-03-18T14:30:47.207Z,98154.66
2019-03-18T14:33:18.116Z,98172.19
2019-03-18T14:35:49.195Z,98175.73
2019-03-18T14:38:20.201Z,98187.23
2019-03-18T14:40:51.117Z,98176.52
2019-03-18T14:43:22.107Z,98181.96
2019-03-18T14:45:52.967Z,98185.32
2019-03-18T14:48:23.923Z,98186.21
2019-03-18T14:50:54.898Z,98201.42
2019-03-18T14:53:25.909Z,98203.47
2019-03-18T14:55:57.159Z,98212.91
2019-03-18T14:58:28.050Z,98192.34
2019-03-18T15:00:58.964Z,98212.30
2019-03-18T15:03:30.081Z,98208.52
2019-03-18T15:06:01.097Z,98217.91
2019-03-18T15:08:32.253Z,98208.13
2019-03-18T15:11:03.210Z,98212.55
2019-03-18T15:13:34.166Z,98213.84
2019-03-18T15:16:05.469Z,98205.81
2019-03-18T15:18:36.341Z,98197.91
2019-03-18T15:21:07.568Z,98199.67
2019-03-18T15:23:38.444Z,98193.21
2019-03-18T15:26:09.414Z,98192.98
2019-03-18T15:28:40.999Z,98194.23
2019-03-18T15:31:11.873Z,98199.66
2019-03-18T15:33:42.757Z,98195.22
2019-03-18T15:36:13.806Z,98202.14
2019-03-18T15:38:46.296Z,98192.48
2019-03-18T15:41:17.327Z,98195.00
2019-03-18T15:43:48.364Z,98197.84
2019-03-18T15:46:19.398Z,98199.08
2019-03-18T15:48:50.355Z,98205.73
2019-03-18T15:51:23.473Z,98217.34
2019-03-18T15:53:54.472Z,98219.27
2019-03-18T15:56:30.328Z,98215.52
2019-03-18T15:59:01.291Z,98222.55
2019-03-18T16:01:32.798Z,98216.84
2019-03-18T16:04:03.859Z,98228.78
2019-03-18T16:06:34.769Z,98245.72
2019-03-18T16:09:07.683Z,98234.02
2019-03-18T16:11:38.622Z,98246.42
2019-03-18T16:14:09.527Z,98270.73
2019-03-18T16:16:40.484Z,98263.34
2019-03-18T16:19:11.483Z,98307.08
2019-03-18T16:21:42.438Z,98303.61
2019-03-18T16:24:13.393Z,98312.44
2019-03-18T16:26:44.458Z,98314.66
2019-03-18T16:29:15.380Z,98287.83
2019-03-18T16:31:46.319Z,98320.70
2019-03-18T16:34:17.300Z,98320.15
2019-03-18T16:36:48.482Z,98314.00
2019-03-18T16:39:19.446Z,98307.30
2019-03-18T16:41:50.453Z,98313.79
2019-03-18T16:44:21.389Z,98322.05
2019-03-18T16:46:52.406Z,98321.07
2019-03-18T16:49:23.270Z,98324.73
2019-03-18T16:51:54.250Z,98324.83
2019-03-18T16:54:25.122Z,98335.12
2019-03-18T16:56:56.080Z,98332.16
2019-03-18T16:59:26.966Z,98341.59
2019-03-18T17:01:57.846Z,98357.40
2019-03-18T17:04:28.818Z,98364.98
2019-03-18T17:06:59.797Z,98365.92
2019-03-18T17:09:30.902Z,98372.53
2019-03-18T17:12:01.884Z,98366.65
2019-03-18T17:14:32.813Z,98380.11
2019-03-18T17:17:03.875Z,98381.86
2019-03-18T17:19:35.020Z,98381.05
2019-03-18T17:22:06.361Z,98377.64
2019-03-18T17:24:37.256Z,98380.31
2019-03-18T17:27:08.224Z,98378.72
2019-03-18T17:29:39.160Z,98386.93
2019-03-18T17:32:10.239Z,98389.49
2019-03-18T17:34:41.249Z,98397.68
2019-03-18T17:37:12.181Z,98395.61
2019-03-18T17:39:44.101Z,98399.03
2019-03-18T17:42:15.220Z,98398.97
2019-03-18T17:44:46.252Z,98415.20
2019-03-18T17:47:17.209Z,98425.80
2019-03-18T17:49:48.235Z,98425.70
2019-03-18T17:52:19.121Z,98432.95
2019-03-18T17:54:50.157Z,98438.61
2019-03-18T17:57:21.178Z,98447.22
2019-03-18T17:59:52.063Z,98452.39
2019-03-18T18:02:37.419Z,98457.47
2019-03-18T18:05:15.039Z,98464.00
2019-03-18T18:07:46.075Z,98470.55
2019-03-18T18:10:17.724Z,98482.77
2019-03-18T18:12:48.945Z,98476.01
2019-03-18T18:15:20.420Z,98477.39
2019-03-18T18:17:51.632Z,98473.19
2019-03-18T18:20:22.909Z,98483.77
2019-03-18T18:22:53.843Z,98482.63
2019-03-18T18:25:25.150Z,98485.72
2019-03-18T18:27:56.333Z,98491.00
2019-03-18T18:30:28.287Z,98489.78
2019-03-18T18:32:59.763Z,98490.27
2019-03-18T18:35:30.709Z,98499.77
2019-03-18T18:38:01.733Z,98498.05
2019-03-18T18:40:33.321Z,98506.20
2019-03-18T18:43:05.691Z,98501.88
2019-03-18T18:45:36.695Z,98501.05
2019-03-18T18:48:19.104Z,98499.34
2019-03-18T18:50:50.896Z,98510.50
2019-03-18T18:53:26.470Z,98507.08
2019-03-18T18:55:56.563Z,98512.66
2019-03-18T18:58:27.602Z,98516.94
2019-03-18T19:01:00.150Z,98513.45
2019-03-18T19:03:31.246Z,98520.20
2019-03-18T19:06:02.366Z,98526.63
2019-03-18T19:08:33.527Z,98531.73
2019-03-18T19:11:04.701Z,98519.65
2019-03-18T19:13:35.659Z,98513.63
2019-03-18T19:16:06.576Z,98512.33
2019-03-18T19:18:38.371Z,98519.14
2019-03-18T19:21:09.514Z,98513.98
2019-03-18T19:23:40.476Z,98516.56
2019-03-18T19:26:11.401Z,98518.28
2019-03-18T19:28:42.460Z,98514.84
2019-03-18T19:31:13.400Z,98522.13
2019-03-18T19:33:44.525Z,98522.57
2019-03-18T19:36:15.441Z,98527.31
2019-03-18T19:38:46.465Z,98536.81
2019-03-18T19:41:17.400Z,98538.97
2019-03-18T19:43:48.386Z,98541.61
2019-03-18T19:46:19.249Z,98539.52
2019-03-18T19:48:50.284Z,98541.30
2019-03-18T19:51:21.219Z,98547.38
2019-03-18T19:53:52.329Z,98549.62
2019-03-18T19:56:23.260Z,98542.80
2019-03-18T19:58:54.196Z,98546.70
2019-03-18T20:01:25.180Z,98553.19
2019-03-18T20:03:56.180Z,98557.51
2019-03-18T20:06:27.164Z,98558.80
2019-03-18T20:08:58.039Z,98557.98
2019-03-18T20:11:29.148Z,98560.52
2019-03-18T20:14:00.234Z,98563.09
2019-03-18T20:16:31.280Z,98563.16
2019-03-18T20:19:02.131Z,98561.05
2019-03-18T20:21:34.733Z,98563.64
2019-03-18T20:24:05.823Z,98566.64
2019-03-18T20:26:36.940Z,98565.33
2019-03-18T20:29:07.880Z,98573.45
2019-03-18T20:31:38.758Z,98570.88
2019-03-18T20:34:09.748Z,98570.02
2019-03-18T20:36:40.748Z,98567.84
2019-03-18T20:39:11.941Z,98570.88
2019-03-18T20:41:42.944Z,98578.63
2019-03-18T20:44:13.887Z,98581.63
2019-03-18T20:46:44.773Z,98577.73
2019-03-18T20:49:17.027Z,98576.84
2019-03-18T20:51:49.658Z,98575.13
2019-03-18T20:54:20.517Z,98575.13
2019-03-18T20:56:51.450Z,98573.84
2019-03-18T20:59:22.345Z,98570.84
2019-03-18T21:01:53.522Z,98575.56
2019-03-18T21:04:24.647Z,98580.25
2019-03-18T21:06:55.732Z,98574.20
2019-03-18T21:09:26.673Z,98576.81
2019-03-18T21:11:57.579Z,98575.56
2019-03-18T21:14:35.752Z,98573.84
2019-03-18T21:17:06.894Z,98582.88
2019-03-18T21:19:38.133Z,98591.89
2019-03-18T21:22:09.602Z,98597.49
2019-03-18T21:24:40.567Z,98597.94
2019-03-18T21:27:11.956Z,98598.81
2019-03-18T21:29:42.957Z,98601.38
2019-03-18T21:32:13.925Z,98595.75
2019-03-18T21:34:44.979Z,98597.06
2019-03-18T21:37:15.879Z,98605.59
2019-03-18T21:39:46.996Z,98600.44
2019-03-18T21:42:17.995Z,98604.33
2019-03-18T21:44:49.034Z,98600.87
2019-03-18T21:47:19.989Z,98605.16
2019-03-18T21:49:50.916Z,98597.03
2019-03-18T21:52:21.888Z,98607.38
2019-03-18T21:54:52.959Z,98606.54
2019-03-18T21:57:24.013Z,98611.27
2019-03-18T21:59:57.445Z,98608.27
2019-03-18T22:02:27.871Z,98609.12
2019-03-18T22:04:58.803Z,98609.14
2019-03-18T22:07:30.056Z,98614.72
2019-03-18T22:10:01.029Z,98626.28
2019-03-18T22:12:32.001Z,98630.98
2019-03-18T22:15:02.879Z,98622.42
2019-03-18T22:17:33.895Z,98632.27
2019-03-18T22:20:08.047Z,98627.97
2019-03-18T22:22:38.933Z,98628.40
2019-03-18T22:25:11.523Z,98640.83
2019-03-18T22:27:42.570Z,98638.68
2019-03-18T22:30:15.104Z,98636.55
2019-03-18T22:32:46.148Z,98638.25
2019-03-18T22:35:17.339Z,98642.56
2019-03-18T22:37:48.272Z,98648.98
2019-03-18T22:40:19.410Z,98647.70
2019-03-18T22:42:50.449Z,98649.42
2019-03-18T22:45:21.336Z,98660.98
2019-03-18T22:47:52.373Z,98657.56
2019-03-18T22:50:23.365Z,98664.01
2019-03-18T22:52:54.216Z,98656.30
2019-03-18T22:55:25.153Z,98659.72
2019-03-18T22:57:56.073Z,98657.13
2019-03-18T23:00:44.870Z,98659.70
2019-03-18T23:03:15.995Z,98672.98
2019-03-18T23:05:47.223Z,98670.39
2019-03-18T23:08:18.177Z,98668.65
2019-03-18T23:10:51.558Z,98663.47
2019-03-18T23:13:22.544Z,98664.34
2019-03-18T23:15:53.434Z,98662.18
2019-03-18T23:18:24.518Z,98665.17
2019-03-18T23:20:55.482Z,98669.88
2019-03-18T23:23:26.375Z,98670.27
2019-03-18T23:25:57.303Z,98681.41
2019-03-18T23:28:28.235Z,98681.39
2019-03-18T23:30:59.267Z,98681.33
2019-03-18T23:33:30.154Z,98687.28
2019-03-18T23:36:01.044Z,98692.86
2019-03-18T23:38:32.077Z,98692.78
2019-03-18T23:41:03.047Z,98684.62
2019-03-18T23:43:34.077Z,98688.42
2019-03-18T23:46:05.123Z,98690.55
2019-03-18T23:48:36.043Z,98689.72
2019-03-18T23:51:07.236Z,98693.11
2019-03-18T23:53:38.247Z,98695.19
2019-03-18T23:56:09.210Z,98692.19
2019-03-18T23:58:40.180Z,98700.77
